sensor_id;sensor_type;location;lat;lon;timestamp;P1;durP1;ratioP1;P2;durP2;ratioP2
32152;SDS011;18656;50.580;11.392;2024-02-26T00:00:19;5.30;;;2.97;;
32152;SDS011;18656;50.580;11.392;2024-02-26T00:02:47;3.13;;;2.80;;
32152;SDS011;18656;50.580;11.392;2024-02-26T00:05:14;2.70;;;2.42;;
32152;SDS011;18656;50.580;11.392;2024-02-26T00:07:41;4.45;;;2.90;;
32152;SDS011;18656;50.580;11.392;2024-02-26T00:10:09;3.83;;;2.50;;
32152;SDS011;18656;50.580;11.392;2024-02-26T00:12:36;3.75;;;2.90;;
32152;SDS011;18656;50.580;11.392;2024-02-26T00:15:09;5.65;;;3.05;;
32152;SDS011;18656;50.580;11.392;2024-02-26T00:17:36;4.55;;;3.00;;
32152;SDS011;18656;50.580;11.392;2024-02-26T00:20:04;3.70;;;2.67;;
32152;SDS011;18656;50.580;11.392;2024-02-26T00:22:35;4.72;;;3.05;;
32152;SDS011;18656;50.580;11.392;2024-02-26T00:25:03;4.78;;;2.65;;
32152;SDS011;18656;50.580;11.392;2024-02-26T00:27:31;3.75;;;3.38;;
32152;SDS011;18656;50.580;11.392;2024-02-26T00:29:58;5.72;;;3.28;;
32152;SDS011;18656;50.580;11.392;2024-02-26T00:32:25;5.40;;;2.70;;
32152;SDS011;18656;50.580;11.392;2024-02-26T00:34:52;3.58;;;2.60;;
32152;SDS011;18656;50.580;11.392;2024-02-26T00:37:20;3.88;;;2.85;;
32152;SDS011;18656;50.580;11.392;2024-02-26T00:39:47;6.65;;;3.10;;
32152;SDS011;18656;50.580;11.392;2024-02-26T00:42:14;3.05;;;2.72;;
32152;SDS011;18656;50.580;11.392;2024-02-26T00:44:42;4.47;;;2.97;;
32152;SDS011;18656;50.580;11.392;2024-02-26T00:47:09;4.07;;;2.70;;
32152;SDS011;18656;50.580;11.392;2024-02-26T00:49:36;4.47;;;2.70;;
32152;SDS011;18656;50.580;11.392;2024-02-26T00:52:04;2.83;;;2.53;;
32152;SDS011;18656;50.580;11.392;2024-02-26T00:54:32;2.90;;;2.63;;
32152;SDS011;18656;50.580;11.392;2024-02-26T00:56:59;3.97;;;2.70;;
32152;SDS011;18656;50.580;11.392;2024-02-26T00:59:27;4.82;;;2.42;;
32152;SDS011;18656;50.580;11.392;2024-02-26T01:01:54;5.70;;;2.97;;
32152;SDS011;18656;50.580;11.392;2024-02-26T01:04:21;3.10;;;2.58;;
32152;SDS011;18656;50.580;11.392;2024-02-26T01:06:49;3.53;;;2.70;;
32152;SDS011;18656;50.580;11.392;2024-02-26T01:09:16;9.35;;;3.25;;
32152;SDS011;18656;50.580;11.392;2024-02-26T01:11:44;4.85;;;2.83;;
32152;SDS011;18656;50.580;11.392;2024-02-26T01:14:13;5.00;;;2.67;;
32152;SDS011;18656;50.580;11.392;2024-02-26T01:16:41;7.45;;;2.80;;
32152;SDS011;18656;50.580;11.392;2024-02-26T01:19:08;4.57;;;2.67;;
32152;SDS011;18656;50.580;11.392;2024-02-26T01:21:36;3.15;;;2.47;;
32152;SDS011;18656;50.580;11.392;2024-02-26T01:24:03;3.63;;;2.88;;
32152;SDS011;18656;50.580;11.392;2024-02-26T01:26:31;2.85;;;2.55;;
32152;SDS011;18656;50.580;11.392;2024-02-26T01:28:58;2.45;;;2.28;;
32152;SDS011;18656;50.580;11.392;2024-02-26T01:31:27;3.10;;;2.60;;
32152;SDS011;18656;50.580;11.392;2024-02-26T01:33:55;4.78;;;2.85;;
32152;SDS011;18656;50.580;11.392;2024-02-26T01:36:23;4.95;;;2.40;;
32152;SDS011;18656;50.580;11.392;2024-02-26T01:38:51;3.95;;;2.83;;
32152;SDS011;18656;50.580;11.392;2024-02-26T01:41:18;2.95;;;2.55;;
32152;SDS011;18656;50.580;11.392;2024-02-26T01:43:46;4.28;;;2.38;;
32152;SDS011;18656;50.580;11.392;2024-02-26T01:46:14;4.40;;;3.10;;
32152;SDS011;18656;50.580;11.392;2024-02-26T01:48:42;3.22;;;2.90;;
32152;SDS011;18656;50.580;11.392;2024-02-26T01:51:10;6.75;;;2.97;;
32152;SDS011;18656;50.580;11.392;2024-02-26T01:53:41;4.38;;;2.90;;
32152;SDS011;18656;50.580;11.392;2024-02-26T01:56:13;4.03;;;2.63;;
32152;SDS011;18656;50.580;11.392;2024-02-26T01:58:42;4.25;;;2.47;;
32152;SDS011;18656;50.580;11.392;2024-02-26T02:01:12;2.72;;;2.30;;
32152;SDS011;18656;50.580;11.392;2024-02-26T02:03:41;3.78;;;2.60;;
32152;SDS011;18656;50.580;11.392;2024-02-26T02:06:14;3.78;;;2.85;;
32152;SDS011;18656;50.580;11.392;2024-02-26T02:08:50;3.38;;;2.40;;
32152;SDS011;18656;50.580;11.392;2024-02-26T02:11:18;3.03;;;2.70;;
32152;SDS011;18656;50.580;11.392;2024-02-26T02:13:45;5.07;;;2.83;;
32152;SDS011;18656;50.580;11.392;2024-02-26T02:16:13;3.63;;;2.70;;
32152;SDS011;18656;50.580;11.392;2024-02-26T02:18:40;6.07;;;2.90;;
32152;SDS011;18656;50.580;11.392;2024-02-26T02:21:09;3.28;;;2.40;;
32152;SDS011;18656;50.580;11.392;2024-02-26T02:23:36;2.95;;;2.65;;
32152;SDS011;18656;50.580;11.392;2024-02-26T02:26:03;4.10;;;2.45;;
32152;SDS011;18656;50.580;11.392;2024-02-26T02:28:30;5.88;;;2.97;;
32152;SDS011;18656;50.580;11.392;2024-02-26T02:30:58;4.80;;;2.50;;
32152;SDS011;18656;50.580;11.392;2024-02-26T02:33:27;5.95;;;2.90;;
32152;SDS011;18656;50.580;11.392;2024-02-26T02:35:54;4.65;;;2.95;;
32152;SDS011;18656;50.580;11.392;2024-02-26T02:38:22;3.90;;;3.00;;
32152;SDS011;18656;50.580;11.392;2024-02-26T02:40:50;4.78;;;2.80;;
32152;SDS011;18656;50.580;11.392;2024-02-26T02:43:17;2.72;;;2.42;;
32152;SDS011;18656;50.580;11.392;2024-02-26T02:45:44;3.85;;;2.85;;
32152;SDS011;18656;50.580;11.392;2024-02-26T02:48:11;3.53;;;2.80;;
32152;SDS011;18656;50.580;11.392;2024-02-26T02:50:39;4.00;;;2.85;;
32152;SDS011;18656;50.580;11.392;2024-02-26T02:53:06;4.45;;;2.83;;
32152;SDS011;18656;50.580;11.392;2024-02-26T02:55:33;5.63;;;2.88;;
32152;SDS011;18656;50.580;11.392;2024-02-26T02:58:00;2.60;;;2.38;;
32152;SDS011;18656;50.580;11.392;2024-02-26T03:00:28;3.10;;;2.50;;
32152;SDS011;18656;50.580;11.392;2024-02-26T03:02:55;4.10;;;2.42;;
32152;SDS011;18656;50.580;11.392;2024-02-26T03:05:22;4.40;;;2.50;;
32152;SDS011;18656;50.580;11.392;2024-02-26T03:07:50;4.25;;;2.45;;
32152;SDS011;18656;50.580;11.392;2024-02-26T03:10:17;3.47;;;2.25;;
32152;SDS011;18656;50.580;11.392;2024-02-26T03:12:45;4.18;;;2.55;;
32152;SDS011;18656;50.580;11.392;2024-02-26T03:15:12;6.85;;;2.78;;
32152;SDS011;18656;50.580;11.392;2024-02-26T03:17:39;3.95;;;3.15;;
32152;SDS011;18656;50.580;11.392;2024-02-26T03:20:07;3.17;;;2.70;;
32152;SDS011;18656;50.580;11.392;2024-02-26T03:22:35;3.08;;;2.85;;
32152;SDS011;18656;50.580;11.392;2024-02-26T03:25:03;3.55;;;2.30;;
32152;SDS011;18656;50.580;11.392;2024-02-26T03:27:30;4.22;;;2.60;;
32152;SDS011;18656;50.580;11.392;2024-02-26T03:29:58;4.07;;;2.80;;
32152;SDS011;18656;50.580;11.392;2024-02-26T03:32:25;3.40;;;2.45;;
32152;SDS011;18656;50.580;11.392;2024-02-26T03:34:53;4.78;;;2.42;;
32152;SDS011;18656;50.580;11.392;2024-02-26T03:37:22;4.47;;;2.95;;
32152;SDS011;18656;50.580;11.392;2024-02-26T03:39:49;4.75;;;3.03;;
32152;SDS011;18656;50.580;11.392;2024-02-26T03:42:16;6.60;;;3.33;;
32152;SDS011;18656;50.580;11.392;2024-02-26T03:44:44;6.53;;;3.25;;
32152;SDS011;18656;50.580;11.392;2024-02-26T03:47:11;8.02;;;2.97;;
32152;SDS011;18656;50.580;11.392;2024-02-26T03:49:38;5.90;;;2.70;;
32152;SDS011;18656;50.580;11.392;2024-02-26T03:52:06;3.13;;;2.55;;
32152;SDS011;18656;50.580;11.392;2024-02-26T03:54:33;3.20;;;2.45;;
32152;SDS011;18656;50.580;11.392;2024-02-26T03:57:00;5.45;;;2.70;;
32152;SDS011;18656;50.580;11.392;2024-02-26T03:59:28;3.90;;;2.55;;
32152;SDS011;18656;50.580;11.392;2024-02-26T04:01:55;3.22;;;2.85;;
32152;SDS011;18656;50.580;11.392;2024-02-26T04:04:22;3.10;;;2.83;;
32152;SDS011;18656;50.580;11.392;2024-02-26T04:06:49;3.95;;;3.00;;
32152;SDS011;18656;50.580;11.392;2024-02-26T04:09:17;6.07;;;2.67;;
32152;SDS011;18656;50.580;11.392;2024-02-26T04:11:44;3.35;;;2.40;;
32152;SDS011;18656;50.580;11.392;2024-02-26T04:14:12;3.03;;;2.42;;
32152;SDS011;18656;50.580;11.392;2024-02-26T04:16:40;3.40;;;2.60;;
32152;SDS011;18656;50.580;11.392;2024-02-26T04:19:07;2.65;;;2.45;;
32152;SDS011;18656;50.580;11.392;2024-02-26T04:21:34;4.03;;;2.97;;
32152;SDS011;18656;50.580;11.392;2024-02-26T04:24:02;2.60;;;2.47;;
32152;SDS011;18656;50.580;11.392;2024-02-26T04:26:30;5.63;;;3.00;;
32152;SDS011;18656;50.580;11.392;2024-02-26T04:28:57;5.28;;;2.47;;
32152;SDS011;18656;50.580;11.392;2024-02-26T04:31:24;4.25;;;2.53;;
32152;SDS011;18656;50.580;11.392;2024-02-26T04:33:52;3.00;;;2.67;;
32152;SDS011;18656;50.580;11.392;2024-02-26T04:36:20;3.55;;;2.70;;
32152;SDS011;18656;50.580;11.392;2024-02-26T04:38:48;3.20;;;2.22;;
32152;SDS011;18656;50.580;11.392;2024-02-26T04:41:15;7.45;;;2.78;;
32152;SDS011;18656;50.580;11.392;2024-02-26T04:43:43;4.75;;;2.40;;
32152;SDS011;18656;50.580;11.392;2024-02-26T04:46:10;5.13;;;2.80;;
32152;SDS011;18656;50.580;11.392;2024-02-26T04:48:38;3.90;;;2.53;;
32152;SDS011;18656;50.580;11.392;2024-02-26T04:51:05;3.03;;;2.72;;
32152;SDS011;18656;50.580;11.392;2024-02-26T04:53:33;3.25;;;2.85;;
32152;SDS011;18656;50.580;11.392;2024-02-26T04:56:00;4.78;;;2.70;;
32152;SDS011;18656;50.580;11.392;2024-02-26T04:58:27;4.47;;;2.78;;
32152;SDS011;18656;50.580;11.392;2024-02-26T05:00:54;3.15;;;2.60;;
32152;SDS011;18656;50.580;11.392;2024-02-26T05:03:22;2.97;;;2.70;;
32152;SDS011;18656;50.580;11.392;2024-02-26T05:05:49;7.97;;;3.92;;
32152;SDS011;18656;50.580;11.392;2024-02-26T05:08:17;8.52;;;4.38;;
32152;SDS011;18656;50.580;11.392;2024-02-26T05:10:45;3.33;;;2.97;;
32152;SDS011;18656;50.580;11.392;2024-02-26T05:13:12;3.35;;;3.05;;
32152;SDS011;18656;50.580;11.392;2024-02-26T05:15:41;6.10;;;3.28;;
32152;SDS011;18656;50.580;11.392;2024-02-26T05:18:08;5.40;;;3.40;;
32152;SDS011;18656;50.580;11.392;2024-02-26T05:20:36;3.55;;;3.00;;
32152;SDS011;18656;50.580;11.392;2024-02-26T05:23:04;6.00;;;3.55;;
32152;SDS011;18656;50.580;11.392;2024-02-26T05:25:31;7.88;;;3.28;;
32152;SDS011;18656;50.580;11.392;2024-02-26T05:27:58;4.95;;;3.70;;
32152;SDS011;18656;50.580;11.392;2024-02-26T05:30:26;4.38;;;3.15;;
32152;SDS011;18656;50.580;11.392;2024-02-26T05:32:54;6.57;;;3.50;;
32152;SDS011;18656;50.580;11.392;2024-02-26T05:35:22;5.35;;;3.50;;
32152;SDS011;18656;50.580;11.392;2024-02-26T05:37:49;9.27;;;3.53;;
32152;SDS011;18656;50.580;11.392;2024-02-26T05:40:16;4.38;;;3.25;;
32152;SDS011;18656;50.580;11.392;2024-02-26T05:42:43;4.50;;;3.45;;
32152;SDS011;18656;50.580;11.392;2024-02-26T05:45:11;3.20;;;2.95;;
32152;SDS011;18656;50.580;11.392;2024-02-26T05:47:38;7.13;;;3.95;;
32152;SDS011;18656;50.580;11.392;2024-02-26T05:50:09;9.65;;;3.95;;
32152;SDS011;18656;50.580;11.392;2024-02-26T05:52:42;7.17;;;3.30;;
32152;SDS011;18656;50.580;11.392;2024-02-26T05:55:09;5.28;;;3.42;;
32152;SDS011;18656;50.580;11.392;2024-02-26T05:57:36;7.93;;;2.95;;
32152;SDS011;18656;50.580;11.392;2024-02-26T06:00:04;4.75;;;2.80;;
32152;SDS011;18656;50.580;11.392;2024-02-26T06:02:32;6.10;;;3.45;;
32152;SDS011;18656;50.580;11.392;2024-02-26T06:04:59;3.55;;;2.80;;
32152;SDS011;18656;50.580;11.392;2024-02-26T06:07:26;6.97;;;2.67;;
32152;SDS011;18656;50.580;11.392;2024-02-26T06:09:54;3.20;;;2.92;;
32152;SDS011;18656;50.580;11.392;2024-02-26T06:12:21;6.97;;;2.50;;
32152;SDS011;18656;50.580;11.392;2024-02-26T06:14:48;5.10;;;2.88;;
32152;SDS011;18656;50.580;11.392;2024-02-26T06:17:16;5.50;;;3.50;;
32152;SDS011;18656;50.580;11.392;2024-02-26T06:19:43;3.53;;;3.00;;
32152;SDS011;18656;50.580;11.392;2024-02-26T06:22:10;5.65;;;3.38;;
32152;SDS011;18656;50.580;11.392;2024-02-26T06:24:37;7.95;;;3.63;;
32152;SDS011;18656;50.580;11.392;2024-02-26T06:27:05;5.90;;;3.85;;
32152;SDS011;18656;50.580;11.392;2024-02-26T06:29:32;4.75;;;3.25;;
32152;SDS011;18656;50.580;11.392;2024-02-26T06:32:00;4.65;;;3.33;;
32152;SDS011;18656;50.580;11.392;2024-02-26T06:34:27;6.65;;;3.92;;
32152;SDS011;18656;50.580;11.392;2024-02-26T06:36:54;6.68;;;3.95;;
32152;SDS011;18656;50.580;11.392;2024-02-26T06:39:22;4.20;;;3.63;;
32152;SDS011;18656;50.580;11.392;2024-02-26T06:41:49;7.13;;;4.53;;
32152;SDS011;18656;50.580;11.392;2024-02-26T06:44:16;6.65;;;3.80;;
32152;SDS011;18656;50.580;11.392;2024-02-26T06:46:44;5.47;;;3.70;;
32152;SDS011;18656;50.580;11.392;2024-02-26T06:49:11;5.88;;;3.70;;
32152;SDS011;18656;50.580;11.392;2024-02-26T06:51:38;6.22;;;3.47;;
32152;SDS011;18656;50.580;11.392;2024-02-26T06:54:06;5.03;;;2.95;;
32152;SDS011;18656;50.580;11.392;2024-02-26T06:56:33;5.15;;;2.97;;
32152;SDS011;18656;50.580;11.392;2024-02-26T06:59:00;6.55;;;4.00;;
32152;SDS011;18656;50.580;11.392;2024-02-26T07:01:27;4.90;;;3.50;;
32152;SDS011;18656;50.580;11.392;2024-02-26T07:03:55;8.52;;;7.13;;
32152;SDS011;18656;50.580;11.392;2024-02-26T07:06:22;11.35;;;4.40;;
32152;SDS011;18656;50.580;11.392;2024-02-26T07:08:49;4.95;;;3.92;;
32152;SDS011;18656;50.580;11.392;2024-02-26T07:11:17;7.55;;;4.07;;
32152;SDS011;18656;50.580;11.392;2024-02-26T07:13:46;7.85;;;3.33;;
32152;SDS011;18656;50.580;11.392;2024-02-26T07:16:15;5.80;;;3.30;;
32152;SDS011;18656;50.580;11.392;2024-02-26T07:18:43;5.03;;;3.65;;
32152;SDS011;18656;50.580;11.392;2024-02-26T07:21:11;6.53;;;3.80;;
32152;SDS011;18656;50.580;11.392;2024-02-26T07:23:39;5.75;;;3.30;;
32152;SDS011;18656;50.580;11.392;2024-02-26T07:26:06;5.53;;;3.75;;
32152;SDS011;18656;50.580;11.392;2024-02-26T07:28:34;9.15;;;4.95;;
32152;SDS011;18656;50.580;11.392;2024-02-26T07:31:02;6.88;;;5.13;;
32152;SDS011;18656;50.580;11.392;2024-02-26T07:33:30;6.82;;;4.68;;
32152;SDS011;18656;50.580;11.392;2024-02-26T07:35:57;7.03;;;4.88;;
32152;SDS011;18656;50.580;11.392;2024-02-26T07:38:24;6.90;;;4.60;;
32152;SDS011;18656;50.580;11.392;2024-02-26T07:41:07;8.40;;;4.80;;
32152;SDS011;18656;50.580;11.392;2024-02-26T07:43:34;9.25;;;4.32;;
32152;SDS011;18656;50.580;11.392;2024-02-26T07:46:02;6.00;;;3.65;;
32152;SDS011;18656;50.580;11.392;2024-02-26T07:48:29;4.82;;;3.47;;
32152;SDS011;18656;50.580;11.392;2024-02-26T07:50:57;6.53;;;3.90;;
32152;SDS011;18656;50.580;11.392;2024-02-26T07:53:26;4.65;;;3.42;;
32152;SDS011;18656;50.580;11.392;2024-02-26T07:55:53;10.88;;;3.92;;
32152;SDS011;18656;50.580;11.392;2024-02-26T07:58:21;5.20;;;3.70;;
32152;SDS011;18656;50.580;11.392;2024-02-26T08:00:49;5.22;;;3.33;;
32152;SDS011;18656;50.580;11.392;2024-02-26T08:03:16;7.03;;;3.60;;
32152;SDS011;18656;50.580;11.392;2024-02-26T08:05:43;5.68;;;4.43;;
32152;SDS011;18656;50.580;11.392;2024-02-26T08:08:11;7.95;;;4.20;;
32152;SDS011;18656;50.580;11.392;2024-02-26T08:10:38;8.35;;;6.25;;
32152;SDS011;18656;50.580;11.392;2024-02-26T08:13:05;9.38;;;5.47;;
32152;SDS011;18656;50.580;11.392;2024-02-26T08:15:33;5.43;;;3.30;;
32152;SDS011;18656;50.580;11.392;2024-02-26T08:18:06;9.05;;;3.67;;
32152;SDS011;18656;50.580;11.392;2024-02-26T08:20:34;8.68;;;3.75;;
32152;SDS011;18656;50.580;11.392;2024-02-26T08:23:01;17.70;;;5.03;;
32152;SDS011;18656;50.580;11.392;2024-02-26T08:25:28;5.03;;;4.03;;
32152;SDS011;18656;50.580;11.392;2024-02-26T08:27:55;7.30;;;4.13;;
32152;SDS011;18656;50.580;11.392;2024-02-26T08:30:23;5.60;;;3.97;;
32152;SDS011;18656;50.580;11.392;2024-02-26T08:32:50;7.28;;;3.08;;
32152;SDS011;18656;50.580;11.392;2024-02-26T08:35:19;7.68;;;3.20;;
32152;SDS011;18656;50.580;11.392;2024-02-26T08:37:47;7.45;;;3.70;;
32152;SDS011;18656;50.580;11.392;2024-02-26T08:40:14;9.88;;;3.83;;
32152;SDS011;18656;50.580;11.392;2024-02-26T08:42:42;8.80;;;2.97;;
32152;SDS011;18656;50.580;11.392;2024-02-26T08:45:09;6.30;;;3.42;;
32152;SDS011;18656;50.580;11.392;2024-02-26T08:47:37;3.40;;;3.10;;
32152;SDS011;18656;50.580;11.392;2024-02-26T08:50:05;17.38;;;3.47;;
32152;SDS011;18656;50.580;11.392;2024-02-26T08:52:32;9.70;;;3.40;;
32152;SDS011;18656;50.580;11.392;2024-02-26T08:55:00;5.95;;;3.75;;
32152;SDS011;18656;50.580;11.392;2024-02-26T08:57:27;7.32;;;3.35;;
32152;SDS011;18656;50.580;11.392;2024-02-26T08:59:54;5.72;;;3.83;;
32152;SDS011;18656;50.580;11.392;2024-02-26T09:02:22;5.32;;;3.63;;
32152;SDS011;18656;50.580;11.392;2024-02-26T09:04:49;5.60;;;3.78;;
32152;SDS011;18656;50.580;11.392;2024-02-26T09:07:19;3.95;;;3.05;;
32152;SDS011;18656;50.580;11.392;2024-02-26T09:09:47;6.32;;;3.17;;
32152;SDS011;18656;50.580;11.392;2024-02-26T09:12:14;4.85;;;3.05;;
32152;SDS011;18656;50.580;11.392;2024-02-26T09:14:41;5.63;;;3.20;;
32152;SDS011;18656;50.580;11.392;2024-02-26T09:17:09;3.10;;;2.80;;
32152;SDS011;18656;50.580;11.392;2024-02-26T09:19:36;6.97;;;3.38;;
32152;SDS011;18656;50.580;11.392;2024-02-26T09:22:04;5.28;;;3.42;;
32152;SDS011;18656;50.580;11.392;2024-02-26T09:24:31;7.28;;;3.38;;
32152;SDS011;18656;50.580;11.392;2024-02-26T09:27:00;4.65;;;3.10;;
32152;SDS011;18656;50.580;11.392;2024-02-26T09:29:28;3.45;;;3.10;;
32152;SDS011;18656;50.580;11.392;2024-02-26T09:31:55;3.63;;;3.20;;
32152;SDS011;18656;50.580;11.392;2024-02-26T09:34:22;6.20;;;3.38;;
32152;SDS011;18656;50.580;11.392;2024-02-26T09:36:50;5.90;;;2.92;;
32152;SDS011;18656;50.580;11.392;2024-02-26T09:39:17;7.53;;;2.88;;
32152;SDS011;18656;50.580;11.392;2024-02-26T09:41:48;6.75;;;3.22;;
32152;SDS011;18656;50.580;11.392;2024-02-26T09:44:20;4.97;;;3.40;;
32152;SDS011;18656;50.580;11.392;2024-02-26T09:46:47;5.93;;;3.38;;
32152;SDS011;18656;50.580;11.392;2024-02-26T09:49:21;6.65;;;3.10;;
32152;SDS011;18656;50.580;11.392;2024-02-26T09:51:50;7.15;;;3.80;;
32152;SDS011;18656;50.580;11.392;2024-02-26T09:54:20;9.68;;;3.42;;
32152;SDS011;18656;50.580;11.392;2024-02-26T09:56:48;3.75;;;3.22;;
32152;SDS011;18656;50.580;11.392;2024-02-26T09:59:29;10.30;;;4.10;;
32152;SDS011;18656;50.580;11.392;2024-02-26T10:01:56;9.35;;;3.90;;
32152;SDS011;18656;50.580;11.392;2024-02-26T10:04:25;14.15;;;4.00;;
32152;SDS011;18656;50.580;11.392;2024-02-26T10:06:53;14.05;;;5.05;;
32152;SDS011;18656;50.580;11.392;2024-02-26T10:09:21;27.10;;;4.75;;
32152;SDS011;18656;50.580;11.392;2024-02-26T10:11:48;6.07;;;4.32;;
32152;SDS011;18656;50.580;11.392;2024-02-26T10:14:16;7.05;;;4.35;;
32152;SDS011;18656;50.580;11.392;2024-02-26T10:16:44;6.68;;;4.00;;
32152;SDS011;18656;50.580;11.392;2024-02-26T10:19:13;6.47;;;3.83;;
32152;SDS011;18656;50.580;11.392;2024-02-26T10:21:58;6.60;;;4.05;;
32152;SDS011;18656;50.580;11.392;2024-02-26T10:24:27;10.00;;;3.80;;
32152;SDS011;18656;50.580;11.392;2024-02-26T10:26:54;8.18;;;4.30;;
32152;SDS011;18656;50.580;11.392;2024-02-26T10:29:23;7.78;;;5.78;;
32152;SDS011;18656;50.580;11.392;2024-02-26T10:31:51;11.40;;;5.90;;
32152;SDS011;18656;50.580;11.392;2024-02-26T10:34:19;8.00;;;5.10;;
32152;SDS011;18656;50.580;11.392;2024-02-26T10:36:47;9.45;;;5.30;;
32152;SDS011;18656;50.580;11.392;2024-02-26T10:39:19;7.00;;;4.75;;
32152;SDS011;18656;50.580;11.392;2024-02-26T10:41:48;8.57;;;4.93;;
32152;SDS011;18656;50.580;11.392;2024-02-26T10:44:15;14.73;;;5.80;;
32152;SDS011;18656;50.580;11.392;2024-02-26T10:46:46;6.53;;;4.85;;
32152;SDS011;18656;50.580;11.392;2024-02-26T10:49:15;8.85;;;6.85;;
32152;SDS011;18656;50.580;11.392;2024-02-26T10:51:51;8.63;;;6.10;;
32152;SDS011;18656;50.580;11.392;2024-02-26T10:54:19;6.65;;;4.93;;
32152;SDS011;18656;50.580;11.392;2024-02-26T10:56:47;36.42;;;22.65;;
32152;SDS011;18656;50.580;11.392;2024-02-26T10:59:15;19.35;;;9.85;;
32152;SDS011;18656;50.580;11.392;2024-02-26T11:01:50;56.22;;;29.55;;
32152;SDS011;18656;50.580;11.392;2024-02-26T11:04:17;36.65;;;21.27;;
32152;SDS011;18656;50.580;11.392;2024-02-26T11:06:45;24.23;;;11.25;;
32152;SDS011;18656;50.580;11.392;2024-02-26T11:09:14;16.30;;;8.25;;
32152;SDS011;18656;50.580;11.392;2024-02-26T11:11:41;56.63;;;28.42;;
32152;SDS011;18656;50.580;11.392;2024-02-26T11:14:09;123.05;;;58.30;;
32152;SDS011;18656;50.580;11.392;2024-02-26T11:16:37;16.15;;;10.70;;
32152;SDS011;18656;50.580;11.392;2024-02-26T11:19:08;23.48;;;9.38;;
32152;SDS011;18656;50.580;11.392;2024-02-26T11:21:37;9.32;;;7.28;;
32152;SDS011;18656;50.580;11.392;2024-02-26T11:24:11;43.75;;;26.60;;
32152;SDS011;18656;50.580;11.392;2024-02-26T11:26:43;11.05;;;7.85;;
32152;SDS011;18656;50.580;11.392;2024-02-26T11:29:13;52.00;;;29.17;;
32152;SDS011;18656;50.580;11.392;2024-02-26T11:31:42;52.70;;;27.58;;
32152;SDS011;18656;50.580;11.392;2024-02-26T11:34:09;32.97;;;17.73;;
32152;SDS011;18656;50.580;11.392;2024-02-26T11:36:38;16.38;;;11.25;;
32152;SDS011;18656;50.580;11.392;2024-02-26T11:46:03;50.28;;;27.33;;
32152;SDS011;18656;50.580;11.392;2024-02-26T11:48:31;23.23;;;14.77;;
32152;SDS011;18656;50.580;11.392;2024-02-26T11:50:59;35.33;;;9.75;;
32152;SDS011;18656;50.580;11.392;2024-02-26T11:53:27;48.67;;;27.42;;
32152;SDS011;18656;50.580;11.392;2024-02-26T11:58:41;71.35;;;43.22;;
32152;SDS011;18656;50.580;11.392;2024-02-26T12:03:54;16.77;;;11.68;;
32152;SDS011;18656;50.580;11.392;2024-02-26T12:06:22;15.65;;;12.32;;
32152;SDS011;18656;50.580;11.392;2024-02-26T12:08:49;15.10;;;10.27;;
32152;SDS011;18656;50.580;11.392;2024-02-26T12:11:16;11.38;;;9.27;;
32152;SDS011;18656;50.580;11.392;2024-02-26T12:13:46;21.58;;;14.23;;
32152;SDS011;18656;50.580;11.392;2024-02-26T12:16:35;17.30;;;11.63;;
32152;SDS011;18656;50.580;11.392;2024-02-26T12:19:03;13.05;;;10.25;;
32152;SDS011;18656;50.580;11.392;2024-02-26T12:21:35;20.75;;;11.77;;
32152;SDS011;18656;50.580;11.392;2024-02-26T12:24:09;15.43;;;10.10;;
32152;SDS011;18656;50.580;11.392;2024-02-26T12:26:38;16.23;;;10.60;;
32152;SDS011;18656;50.580;11.392;2024-02-26T12:29:05;21.38;;;10.93;;
32152;SDS011;18656;50.580;11.392;2024-02-26T12:31:32;15.85;;;11.27;;
32152;SDS011;18656;50.580;11.392;2024-02-26T12:34:00;16.48;;;11.10;;
32152;SDS011;18656;50.580;11.392;2024-02-26T12:36:28;15.15;;;11.27;;
32152;SDS011;18656;50.580;11.392;2024-02-26T12:38:55;14.93;;;10.75;;
32152;SDS011;18656;50.580;11.392;2024-02-26T12:41:22;18.85;;;11.10;;
32152;SDS011;18656;50.580;11.392;2024-02-26T12:43:50;14.90;;;10.95;;
32152;SDS011;18656;50.580;11.392;2024-02-26T12:46:17;14.55;;;11.18;;
32152;SDS011;18656;50.580;11.392;2024-02-26T12:48:46;13.65;;;10.30;;
32152;SDS011;18656;50.580;11.392;2024-02-26T12:51:14;16.38;;;10.95;;
32152;SDS011;18656;50.580;11.392;2024-02-26T12:53:41;16.75;;;10.75;;
32152;SDS011;18656;50.580;11.392;2024-02-26T12:56:10;15.25;;;11.15;;
32152;SDS011;18656;50.580;11.392;2024-02-26T12:58:40;17.48;;;11.40;;
32152;SDS011;18656;50.580;11.392;2024-02-26T13:01:08;18.40;;;11.85;;
32152;SDS011;18656;50.580;11.392;2024-02-26T13:03:40;15.77;;;11.57;;
32152;SDS011;18656;50.580;11.392;2024-02-26T13:06:08;16.90;;;11.65;;
32152;SDS011;18656;50.580;11.392;2024-02-26T13:08:36;13.48;;;11.00;;
32152;SDS011;18656;50.580;11.392;2024-02-26T13:11:04;20.05;;;12.27;;
32152;SDS011;18656;50.580;11.392;2024-02-26T13:13:31;16.33;;;11.85;;
32152;SDS011;18656;50.580;11.392;2024-02-26T13:16:02;16.08;;;11.55;;
32152;SDS011;18656;50.580;11.392;2024-02-26T13:18:30;17.30;;;11.45;;
32152;SDS011;18656;50.580;11.392;2024-02-26T13:21:08;23.92;;;13.02;;
32152;SDS011;18656;50.580;11.392;2024-02-26T13:23:37;16.52;;;12.23;;
32152;SDS011;18656;50.580;11.392;2024-02-26T13:26:04;15.75;;;11.77;;
32152;SDS011;18656;50.580;11.392;2024-02-26T13:28:32;19.73;;;12.05;;
32152;SDS011;18656;50.580;11.392;2024-02-26T13:30:59;19.48;;;12.50;;
32152;SDS011;18656;50.580;11.392;2024-02-26T13:33:28;17.60;;;11.48;;
32152;SDS011;18656;50.580;11.392;2024-02-26T13:35:56;17.17;;;12.35;;
32152;SDS011;18656;50.580;11.392;2024-02-26T13:38:24;15.82;;;11.55;;
32152;SDS011;18656;50.580;11.392;2024-02-26T13:40:51;18.90;;;12.27;;
32152;SDS011;18656;50.580;11.392;2024-02-26T13:43:19;20.98;;;11.25;;
32152;SDS011;18656;50.580;11.392;2024-02-26T13:45:46;19.27;;;11.77;;
32152;SDS011;18656;50.580;11.392;2024-02-26T13:48:14;18.90;;;12.00;;
32152;SDS011;18656;50.580;11.392;2024-02-26T13:50:42;16.85;;;11.40;;
32152;SDS011;18656;50.580;11.392;2024-02-26T13:53:12;18.20;;;11.15;;
32152;SDS011;18656;50.580;11.392;2024-02-26T13:55:40;13.95;;;10.63;;
32152;SDS011;18656;50.580;11.392;2024-02-26T13:58:11;13.80;;;10.65;;
32152;SDS011;18656;50.580;11.392;2024-02-26T14:00:39;17.67;;;11.50;;
32152;SDS011;18656;50.580;11.392;2024-02-26T14:03:08;17.48;;;10.82;;
32152;SDS011;18656;50.580;11.392;2024-02-26T14:05:36;14.15;;;10.23;;
32152;SDS011;18656;50.580;11.392;2024-02-26T14:08:03;18.13;;;10.52;;
32152;SDS011;18656;50.580;11.392;2024-02-26T14:10:32;16.73;;;10.52;;
32152;SDS011;18656;50.580;11.392;2024-02-26T14:12:59;24.00;;;11.00;;
32152;SDS011;18656;50.580;11.392;2024-02-26T14:15:27;14.23;;;10.35;;
32152;SDS011;18656;50.580;11.392;2024-02-26T14:17:55;22.63;;;10.60;;
32152;SDS011;18656;50.580;11.392;2024-02-26T14:20:23;16.15;;;10.93;;
32152;SDS011;18656;50.580;11.392;2024-02-26T14:22:51;25.23;;;11.70;;
32152;SDS011;18656;50.580;11.392;2024-02-26T14:25:20;18.15;;;11.05;;
32152;SDS011;18656;50.580;11.392;2024-02-26T14:27:47;15.13;;;10.90;;
32152;SDS011;18656;50.580;11.392;2024-02-26T14:30:15;16.88;;;10.55;;
32152;SDS011;18656;50.580;11.392;2024-02-26T14:32:42;15.02;;;10.20;;
32152;SDS011;18656;50.580;11.392;2024-02-26T14:35:10;13.10;;;9.70;;
32152;SDS011;18656;50.580;11.392;2024-02-26T14:37:43;15.98;;;10.40;;
32152;SDS011;18656;50.580;11.392;2024-02-26T14:40:13;17.02;;;9.57;;
32152;SDS011;18656;50.580;11.392;2024-02-26T14:42:41;13.02;;;9.32;;
32152;SDS011;18656;50.580;11.392;2024-02-26T14:45:08;13.93;;;9.50;;